sensor_id;sensor_type;location;lat;lon;timestamp;temperature;humidity
61004;DHT22;46889;37.310;13.582;2023-04-25T00:01:50;15.10;99.90
61004;DHT22;46889;37.310;13.582;2023-04-25T00:04:17;15.10;99.90
61004;DHT22;46889;37.310;13.582;2023-04-25T00:06:43;15.00;99.90
61004;DHT22;46889;37.310;13.582;2023-04-25T00:09:10;14.90;99.90
61004;DHT22;46889;37.310;13.582;2023-04-25T00:11:36;14.70;99.90
61004;DHT22;46889;37.310;13.582;2023-04-25T00:14:04;14.70;99.90
61004;DHT22;46889;37.310;13.582;2023-04-25T00:16:32;14.70;99.90
61004;DHT22;46889;37.310;13.582;2023-04-25T00:19:01;14.70;99.90
61004;DHT22;46889;37.310;13.582;2023-04-25T00:21:30;14.70;99.90
61004;DHT22;46889;37.310;13.582;2023-04-25T00:23:57;14.70;99.90
61004;DHT22;46889;37.310;13.582;2023-04-25T00:26:23;14.70;99.90
61004;DHT22;46889;37.310;13.582;2023-04-25T00:28:49;14.60;99.90
61004;DHT22;46889;37.310;13.582;2023-04-25T00:31:15;14.60;99.90
61004;DHT22;46889;37.310;13.582;2023-04-25T00:33:44;14.60;99.90
61004;DHT22;46889;37.310;13.582;2023-04-25T00:36:10;14.50;99.90
61004;DHT22;46889;37.310;13.582;2023-04-25T00:38:36;14.50;99.90
61004;DHT22;46889;37.310;13.582;2023-04-25T00:41:04;14.50;99.90
61004;DHT22;46889;37.310;13.582;2023-04-25T00:43:32;14.50;99.90
61004;DHT22;46889;37.310;13.582;2023-04-25T00:46:07;14.50;99.90
61004;DHT22;46889;37.310;13.582;2023-04-25T00:48:40;14.40;99.90
61004;DHT22;46889;37.310;13.582;2023-04-25T00:51:06;14.40;99.90
61004;DHT22;46889;37.310;13.582;2023-04-25T00:53:32;14.30;99.90
61004;DHT22;46889;37.310;13.582;2023-04-25T00:55:59;14.30;99.90
61004;DHT22;46889;37.310;13.582;2023-04-25T00:58:25;14.30;99.90
61004;DHT22;46889;37.310;13.582;2023-04-25T01:00:52;14.30;99.90
61004;DHT22;46889;37.310;13.582;2023-04-25T01:03:18;14.30;99.90
61004;DHT22;46889;37.310;13.582;2023-04-25T01:05:47;14.30;99.90
61004;DHT22;46889;37.310;13.582;2023-04-25T01:08:14;14.30;99.90
61004;DHT22;46889;37.310;13.582;2023-04-25T01:10:41;14.30;99.90
61004;DHT22;46889;37.310;13.582;2023-04-25T01:13:08;14.30;99.90
61004;DHT22;46889;37.310;13.582;2023-04-25T01:15:34;14.30;99.90
61004;DHT22;46889;37.310;13.582;2023-04-25T01:18:01;14.30;99.90
61004;DHT22;46889;37.310;13.582;2023-04-25T01:20:29;14.20;99.90
61004;DHT22;46889;37.310;13.582;2023-04-25T01:22:55;14.20;99.90
61004;DHT22;46889;37.310;13.582;2023-04-25T01:25:22;14.20;99.90
61004;DHT22;46889;37.310;13.582;2023-04-25T01:27:48;14.30;99.90
61004;DHT22;46889;37.310;13.582;2023-04-25T01:30:14;14.30;99.90
61004;DHT22;46889;37.310;13.582;2023-04-25T01:32:41;14.30;99.90
61004;DHT22;46889;37.310;13.582;2023-04-25T01:35:09;14.30;99.90
61004;DHT22;46889;37.310;13.582;2023-04-25T01:37:38;14.20;99.90
61004;DHT22;46889;37.310;13.582;2023-04-25T01:40:05;14.30;99.90
61004;DHT22;46889;37.310;13.582;2023-04-25T01:42:32;14.20;99.90
61004;DHT22;46889;37.310;13.582;2023-04-25T01:44:59;14.20;99.90
61004;DHT22;46889;37.310;13.582;2023-04-25T01:47:25;14.20;99.90
61004;DHT22;46889;37.310;13.582;2023-04-25T01:49:51;14.20;99.90
61004;DHT22;46889;37.310;13.582;2023-04-25T01:52:17;14.20;99.90
61004;DHT22;46889;37.310;13.582;2023-04-25T01:54:44;14.20;99.90
61004;DHT22;46889;37.310;13.582;2023-04-25T01:57:11;14.20;99.90
61004;DHT22;46889;37.310;13.582;2023-04-25T01:59:37;14.20;99.90
61004;DHT22;46889;37.310;13.582;2023-04-25T02:02:03;14.20;99.90
61004;DHT22;46889;37.310;13.582;2023-04-25T02:04:30;14.20;99.90
61004;DHT22;46889;37.310;13.582;2023-04-25T02:06:56;14.20;99.90
61004;DHT22;46889;37.310;13.582;2023-04-25T02:09:22;14.20;99.90
61004;DHT22;46889;37.310;13.582;2023-04-25T02:11:49;14.30;99.90
61004;DHT22;46889;37.310;13.582;2023-04-25T02:14:15;14.30;99.90
61004;DHT22;46889;37.310;13.582;2023-04-25T02:16:41;14.20;99.90
61004;DHT22;46889;37.310;13.582;2023-04-25T02:19:09;14.20;99.90
61004;DHT22;46889;37.310;13.582;2023-04-25T02:21:36;14.10;99.90
61004;DHT22;46889;37.310;13.582;2023-04-25T02:24:03;14.20;99.90
61004;DHT22;46889;37.310;13.582;2023-04-25T02:26:29;14.20;99.90
61004;DHT22;46889;37.310;13.582;2023-04-25T02:28:56;14.30;99.90
61004;DHT22;46889;37.310;13.582;2023-04-25T02:31:23;14.40;99.90
61004;DHT22;46889;37.310;13.582;2023-04-25T02:33:49;14.60;99.90
61004;DHT22;46889;37.310;13.582;2023-04-25T02:36:15;14.70;99.90
61004;DHT22;46889;37.310;13.582;2023-04-25T02:38:41;14.80;99.90
61004;DHT22;46889;37.310;13.582;2023-04-25T02:41:07;14.80;99.90
61004;DHT22;46889;37.310;13.582;2023-04-25T02:43:33;14.80;99.90
61004;DHT22;46889;37.310;13.582;2023-04-25T02:45:59;14.80;99.90
61004;DHT22;46889;37.310;13.582;2023-04-25T02:48:25;14.80;99.90
61004;DHT22;46889;37.310;13.582;2023-04-25T02:50:51;14.80;99.90
61004;DHT22;46889;37.310;13.582;2023-04-25T02:53:17;14.90;99.90
61004;DHT22;46889;37.310;13.582;2023-04-25T02:55:43;15.00;99.90
61004;DHT22;46889;37.310;13.582;2023-04-25T02:58:09;15.00;99.90
61004;DHT22;46889;37.310;13.582;2023-04-25T03:00:35;15.00;99.90
61004;DHT22;46889;37.310;13.582;2023-04-25T03:03:02;15.10;99.90
61004;DHT22;46889;37.310;13.582;2023-04-25T03:05:28;15.00;99.90
61004;DHT22;46889;37.310;13.582;2023-04-25T03:07:54;15.00;99.90
61004;DHT22;46889;37.310;13.582;2023-04-25T03:10:20;15.00;99.90
61004;DHT22;46889;37.310;13.582;2023-04-25T03:12:46;14.90;99.90
61004;DHT22;46889;37.310;13.582;2023-04-25T03:15:12;15.00;99.90
61004;DHT22;46889;37.310;13.582;2023-04-25T03:17:38;14.90;99.90
61004;DHT22;46889;37.310;13.582;2023-04-25T03:20:04;14.90;99.90
61004;DHT22;46889;37.310;13.582;2023-04-25T03:22:30;14.90;99.90
61004;DHT22;46889;37.310;13.582;2023-04-25T03:24:57;14.90;99.90
61004;DHT22;46889;37.310;13.582;2023-04-25T03:27:23;14.90;99.90
61004;DHT22;46889;37.310;13.582;2023-04-25T03:29:49;14.80;99.90
61004;DHT22;46889;37.310;13.582;2023-04-25T03:32:15;14.80;99.90
61004;DHT22;46889;37.310;13.582;2023-04-25T03:34:41;14.80;99.90
61004;DHT22;46889;37.310;13.582;2023-04-25T03:37:07;14.80;99.90
61004;DHT22;46889;37.310;13.582;2023-04-25T03:39:33;14.80;99.90
61004;DHT22;46889;37.310;13.582;2023-04-25T03:41:59;14.70;99.90
61004;DHT22;46889;37.310;13.582;2023-04-25T03:44:25;14.70;99.90
61004;DHT22;46889;37.310;13.582;2023-04-25T03:46:51;14.70;99.90
61004;DHT22;46889;37.310;13.582;2023-04-25T03:49:17;14.70;99.90
61004;DHT22;46889;37.310;13.582;2023-04-25T03:51:43;14.60;99.90
61004;DHT22;46889;37.310;13.582;2023-04-25T03:54:09;14.60;99.90
61004;DHT22;46889;37.310;13.582;2023-04-25T03:56:35;14.60;99.90
61004;DHT22;46889;37.310;13.582;2023-04-25T03:59:01;14.60;99.90
61004;DHT22;46889;37.310;13.582;2023-04-25T04:01:27;14.50;99.90
61004;DHT22;46889;37.310;13.582;2023-04-25T04:03:53;14.30;99.90
61004;DHT22;46889;37.310;13.582;2023-04-25T04:06:19;14.30;99.90
61004;DHT22;46889;37.310;13.582;2023-04-25T04:08:46;14.30;99.90
61004;DHT22;46889;37.310;13.582;2023-04-25T04:11:12;14.30;99.90
61004;DHT22;46889;37.310;13.582;2023-04-25T04:13:38;14.30;99.90
61004;DHT22;46889;37.310;13.582;2023-04-25T04:16:04;14.30;99.90
61004;DHT22;46889;37.310;13.582;2023-04-25T04:18:31;14.40;99.90
61004;DHT22;46889;37.310;13.582;2023-04-25T04:20:59;14.40;99.90
61004;DHT22;46889;37.310;13.582;2023-04-25T04:23:25;14.40;99.90
61004;DHT22;46889;37.310;13.582;2023-04-25T04:25:53;14.40;99.90
61004;DHT22;46889;37.310;13.582;2023-04-25T04:28:19;14.30;99.90
61004;DHT22;46889;37.310;13.582;2023-04-25T04:30:46;14.30;99.90
61004;DHT22;46889;37.310;13.582;2023-04-25T04:33:13;14.20;99.90
61004;DHT22;46889;37.310;13.582;2023-04-25T04:35:41;14.10;99.90
61004;DHT22;46889;37.310;13.582;2023-04-25T04:38:07;14.00;99.90
61004;DHT22;46889;37.310;13.582;2023-04-25T04:40:35;14.00;99.90
61004;DHT22;46889;37.310;13.582;2023-04-25T04:43:01;14.00;99.90
61004;DHT22;46889;37.310;13.582;2023-04-25T04:45:27;14.00;99.90
61004;DHT22;46889;37.310;13.582;2023-04-25T04:47:54;14.00;99.90
61004;DHT22;46889;37.310;13.582;2023-04-25T04:50:20;14.20;99.90
61004;DHT22;46889;37.310;13.582;2023-04-25T04:52:47;14.30;99.90
61004;DHT22;46889;37.310;13.582;2023-04-25T04:55:13;14.40;99.90
61004;DHT22;46889;37.310;13.582;2023-04-25T04:57:39;14.50;99.90
61004;DHT22;46889;37.310;13.582;2023-04-25T05:00:06;14.50;99.90
61004;DHT22;46889;37.310;13.582;2023-04-25T05:02:39;14.60;99.90
61004;DHT22;46889;37.310;13.582;2023-04-25T05:05:06;14.70;99.90
61004;DHT22;46889;37.310;13.582;2023-04-25T05:07:32;14.70;99.90
61004;DHT22;46889;37.310;13.582;2023-04-25T05:09:58;14.70;99.90
61004;DHT22;46889;37.310;13.582;2023-04-25T05:12:24;14.90;99.90
61004;DHT22;46889;37.310;13.582;2023-04-25T05:14:50;16.00;99.90
61004;DHT22;46889;37.310;13.582;2023-04-25T05:17:16;18.30;99.90
61004;DHT22;46889;37.310;13.582;2023-04-25T05:19:47;19.60;99.90
61004;DHT22;46889;37.310;13.582;2023-04-25T05:22:13;21.30;99.90
61004;DHT22;46889;37.310;13.582;2023-04-25T05:24:40;23.40;99.90
61004;DHT22;46889;37.310;13.582;2023-04-25T05:27:09;24.70;99.90
61004;DHT22;46889;37.310;13.582;2023-04-25T05:29:36;25.90;99.90
61004;DHT22;46889;37.310;13.582;2023-04-25T05:32:04;25.10;99.90
61004;DHT22;46889;37.310;13.582;2023-04-25T05:34:35;26.10;99.90
61004;DHT22;46889;37.310;13.582;2023-04-25T05:37:01;27.50;99.90
61004;DHT22;46889;37.310;13.582;2023-04-25T05:39:27;28.80;99.90
61004;DHT22;46889;37.310;13.582;2023-04-25T05:41:53;29.70;99.90
61004;DHT22;46889;37.310;13.582;2023-04-25T05:44:19;31.00;99.90
61004;DHT22;46889;37.310;13.582;2023-04-25T05:46:45;31.50;99.90
61004;DHT22;46889;37.310;13.582;2023-04-25T05:49:11;32.00;99.90
61004;DHT22;46889;37.310;13.582;2023-04-25T05:51:37;31.20;99.90
61004;DHT22;46889;37.310;13.582;2023-04-25T05:54:03;30.60;99.90
61004;DHT22;46889;37.310;13.582;2023-04-25T05:56:29;30.90;99.90
61004;DHT22;46889;37.310;13.582;2023-04-25T05:58:55;31.10;99.90
61004;DHT22;46889;37.310;13.582;2023-04-25T06:01:22;31.10;99.90
61004;DHT22;46889;37.310;13.582;2023-04-25T06:03:48;29.50;99.90
61004;DHT22;46889;37.310;13.582;2023-04-25T06:06:15;28.50;99.90
61004;DHT22;46889;37.310;13.582;2023-04-25T06:08:40;27.80;99.90
61004;DHT22;46889;37.310;13.582;2023-04-25T06:11:07;27.00;99.90
61004;DHT22;46889;37.310;13.582;2023-04-25T06:13:33;27.00;99.90
61004;DHT22;46889;37.310;13.582;2023-04-25T06:15:59;27.60;99.90
61004;DHT22;46889;37.310;13.582;2023-04-25T06:18:26;26.80;99.90
61004;DHT22;46889;37.310;13.582;2023-04-25T06:20:52;25.10;99.90
61004;DHT22;46889;37.310;13.582;2023-04-25T06:23:18;25.00;99.90
61004;DHT22;46889;37.310;13.582;2023-04-25T06:25:44;24.30;99.90
61004;DHT22;46889;37.310;13.582;2023-04-25T06:28:10;23.60;99.90
61004;DHT22;46889;37.310;13.582;2023-04-25T06:30:36;23.10;99.90
61004;DHT22;46889;37.310;13.582;2023-04-25T06:33:02;22.20;99.90
61004;DHT22;46889;37.310;13.582;2023-04-25T06:35:28;22.00;99.90
61004;DHT22;46889;37.310;13.582;2023-04-25T06:37:54;22.50;99.90
61004;DHT22;46889;37.310;13.582;2023-04-25T06:40:20;23.00;99.90
61004;DHT22;46889;37.310;13.582;2023-04-25T06:42:46;23.70;99.90
61004;DHT22;46889;37.310;13.582;2023-04-25T06:45:12;24.30;99.90
61004;DHT22;46889;37.310;13.582;2023-04-25T06:47:38;24.70;99.90
61004;DHT22;46889;37.310;13.582;2023-04-25T06:50:05;26.20;99.90
61004;DHT22;46889;37.310;13.582;2023-04-25T06:52:31;27.30;99.90
61004;DHT22;46889;37.310;13.582;2023-04-25T06:54:57;26.70;99.90
61004;DHT22;46889;37.310;13.582;2023-04-25T06:57:23;26.30;99.90
61004;DHT22;46889;37.310;13.582;2023-04-25T06:59:50;25.80;99.90
61004;DHT22;46889;37.310;13.582;2023-04-25T07:02:16;26.50;99.90
61004;DHT22;46889;37.310;13.582;2023-04-25T07:04:42;26.40;99.90
61004;DHT22;46889;37.310;13.582;2023-04-25T07:07:08;26.80;99.90
61004;DHT22;46889;37.310;13.582;2023-04-25T07:09:34;27.80;99.90
61004;DHT22;46889;37.310;13.582;2023-04-25T07:12:00;27.70;99.90
61004;DHT22;46889;37.310;13.582;2023-04-25T07:14:29;28.90;99.90
61004;DHT22;46889;37.310;13.582;2023-04-25T07:16:55;30.40;99.90
61004;DHT22;46889;37.310;13.582;2023-04-25T07:19:22;30.60;99.90
61004;DHT22;46889;37.310;13.582;2023-04-25T07:21:52;30.70;99.90
61004;DHT22;46889;37.310;13.582;2023-04-25T07:24:18;30.40;99.90
61004;DHT22;46889;37.310;13.582;2023-04-25T07:26:44;30.30;99.90
61004;DHT22;46889;37.310;13.582;2023-04-25T07:29:11;29.30;99.90
61004;DHT22;46889;37.310;13.582;2023-04-25T07:31:40;28.40;99.90
61004;DHT22;46889;37.310;13.582;2023-04-25T07:34:06;28.30;99.90
61004;DHT22;46889;37.310;13.582;2023-04-25T07:36:32;27.90;99.90
61004;DHT22;46889;37.310;13.582;2023-04-25T07:38:58;27.40;99.90
61004;DHT22;46889;37.310;13.582;2023-04-25T07:41:24;26.00;99.90
61004;DHT22;46889;37.310;13.582;2023-04-25T07:43:50;25.70;99.90
61004;DHT22;46889;37.310;13.582;2023-04-25T07:46:16;25.50;99.90
61004;DHT22;46889;37.310;13.582;2023-04-25T07:48:44;25.50;99.90
61004;DHT22;46889;37.310;13.582;2023-04-25T07:51:10;25.10;99.90
61004;DHT22;46889;37.310;13.582;2023-04-25T07:53:37;25.00;99.90
61004;DHT22;46889;37.310;13.582;2023-04-25T07:56:03;25.10;99.90
61004;DHT22;46889;37.310;13.582;2023-04-25T07:58:30;24.10;99.90
61004;DHT22;46889;37.310;13.582;2023-04-25T08:00:56;24.10;99.90
61004;DHT22;46889;37.310;13.582;2023-04-25T08:03:22;24.40;99.90
61004;DHT22;46889;37.310;13.582;2023-04-25T08:05:48;24.80;99.90
61004;DHT22;46889;37.310;13.582;2023-04-25T08:08:14;24.90;99.90
61004;DHT22;46889;37.310;13.582;2023-04-25T08:10:40;24.90;99.90
61004;DHT22;46889;37.310;13.582;2023-04-25T08:13:06;24.90;99.90
61004;DHT22;46889;37.310;13.582;2023-04-25T08:15:32;25.10;99.90
61004;DHT22;46889;37.310;13.582;2023-04-25T08:17:58;24.90;99.90
61004;DHT22;46889;37.310;13.582;2023-04-25T08:20:25;25.20;99.90
61004;DHT22;46889;37.310;13.582;2023-04-25T08:22:51;25.20;99.90
61004;DHT22;46889;37.310;13.582;2023-04-25T08:25:16;25.50;99.90
61004;DHT22;46889;37.310;13.582;2023-04-25T08:27:43;25.50;99.90
61004;DHT22;46889;37.310;13.582;2023-04-25T08:30:09;25.70;99.90
61004;DHT22;46889;37.310;13.582;2023-04-25T08:32:35;25.90;99.90
61004;DHT22;46889;37.310;13.582;2023-04-25T08:35:04;25.40;99.90
61004;DHT22;46889;37.310;13.582;2023-04-25T08:37:30;25.70;99.90
61004;DHT22;46889;37.310;13.582;2023-04-25T08:39:56;25.40;99.90
61004;DHT22;46889;37.310;13.582;2023-04-25T08:42:22;25.70;99.90
61004;DHT22;46889;37.310;13.582;2023-04-25T08:44:49;25.80;99.90
61004;DHT22;46889;37.310;13.582;2023-04-25T08:47:15;25.60;99.90
61004;DHT22;46889;37.310;13.582;2023-04-25T08:49:45;25.40;99.90
61004;DHT22;46889;37.310;13.582;2023-04-25T08:52:13;25.40;99.90
61004;DHT22;46889;37.310;13.582;2023-04-25T08:54:43;25.20;99.90
61004;DHT22;46889;37.310;13.582;2023-04-25T08:57:16;25.00;99.90
61004;DHT22;46889;37.310;13.582;2023-04-25T08:59:49;25.00;99.90
61004;DHT22;46889;37.310;13.582;2023-04-25T09:02:15;24.80;99.90
61004;DHT22;46889;37.310;13.582;2023-04-25T09:04:44;24.70;99.90
61004;DHT22;46889;37.310;13.582;2023-04-25T09:07:11;24.90;99.90
61004;DHT22;46889;37.310;13.582;2023-04-25T09:09:41;24.60;99.90
61004;DHT22;46889;37.310;13.582;2023-04-25T09:12:08;24.90;99.90
61004;DHT22;46889;37.310;13.582;2023-04-25T09:14:34;24.70;99.90
61004;DHT22;46889;37.310;13.582;2023-04-25T09:17:02;24.70;99.90
61004;DHT22;46889;37.310;13.582;2023-04-25T09:19:34;24.90;99.90
61004;DHT22;46889;37.310;13.582;2023-04-25T09:22:06;24.60;99.90
61004;DHT22;46889;37.310;13.582;2023-04-25T09:24:45;24.80;99.90
61004;DHT22;46889;37.310;13.582;2023-04-25T09:27:20;24.70;99.90
61004;DHT22;46889;37.310;13.582;2023-04-25T09:29:48;24.80;99.90
61004;DHT22;46889;37.310;13.582;2023-04-25T09:32:24;25.10;99.90
61004;DHT22;46889;37.310;13.582;2023-04-25T09:34:55;25.10;99.90
61004;DHT22;46889;37.310;13.582;2023-04-25T09:37:23;24.90;99.90
61004;DHT22;46889;37.310;13.582;2023-04-25T09:39:53;24.50;99.90
61004;DHT22;46889;37.310;13.582;2023-04-25T09:42:22;24.50;99.90
61004;DHT22;46889;37.310;13.582;2023-04-25T09:44:52;24.50;99.90
61004;DHT22;46889;37.310;13.582;2023-04-25T09:47:18;24.20;99.90
61004;DHT22;46889;37.310;13.582;2023-04-25T09:49:47;24.00;99.90
61004;DHT22;46889;37.310;13.582;2023-04-25T09:52:17;24.50;99.90
61004;DHT22;46889;37.310;13.582;2023-04-25T09:54:44;24.40;99.90
61004;DHT22;46889;37.310;13.582;2023-04-25T09:57:16;24.50;99.90
61004;DHT22;46889;37.310;13.582;2023-04-25T09:59:50;24.70;99.90
61004;DHT22;46889;37.310;13.582;2023-04-25T10:02:26;24.70;99.90
61004;DHT22;46889;37.310;13.582;2023-04-25T10:04:55;24.30;99.90
61004;DHT22;46889;37.310;13.582;2023-04-25T10:07:29;24.30;99.90
61004;DHT22;46889;37.310;13.582;2023-04-25T10:10:02;24.80;99.90
61004;DHT22;46889;37.310;13.582;2023-04-25T10:12:30;24.70;99.90
61004;DHT22;46889;37.310;13.582;2023-04-25T10:14:59;24.50;99.90
61004;DHT22;46889;37.310;13.582;2023-04-25T10:17:29;24.40;99.90
61004;DHT22;46889;37.310;13.582;2023-04-25T10:19:55;24.60;99.90
61004;DHT22;46889;37.310;13.582;2023-04-25T10:22:39;24.10;99.90
61004;DHT22;46889;37.310;13.582;2023-04-25T10:25:07;24.30;99.90
61004;DHT22;46889;37.310;13.582;2023-04-25T10:27:34;24.60;99.90
61004;DHT22;46889;37.310;13.582;2023-04-25T10:30:07;25.00;99.90
61004;DHT22;46889;37.310;13.582;2023-04-25T10:32:36;25.30;99.90
61004;DHT22;46889;37.310;13.582;2023-04-25T10:37:38;24.90;99.90
61004;DHT22;46889;37.310;13.582;2023-04-25T10:40:11;24.70;99.90
61004;DHT22;46889;37.310;13.582;2023-04-25T10:42:37;24.70;99.90
61004;DHT22;46889;37.310;13.582;2023-04-25T10:45:07;24.80;99.90
61004;DHT22;46889;37.310;13.582;2023-04-25T10:47:36;24.70;99.90
61004;DHT22;46889;37.310;13.582;2023-04-25T10:50:07;24.30;99.90
61004;DHT22;46889;37.310;13.582;2023-04-25T10:52:34;24.10;99.90
61004;DHT22;46889;37.310;13.582;2023-04-25T10:55:03;24.30;99.90
61004;DHT22;46889;37.310;13.582;2023-04-25T10:57:44;24.30;99.90
61004;DHT22;46889;37.310;13.582;2023-04-25T11:00:19;24.50;99.90
61004;DHT22;46889;37.310;13.582;2023-04-25T11:02:52;24.90;99.90
61004;DHT22;46889;37.310;13.582;2023-04-25T11:05:22;24.90;99.90
61004;DHT22;46889;37.310;13.582;2023-04-25T11:07:55;24.30;99.90
61004;DHT22;46889;37.310;13.582;2023-04-25T11:10:30;24.70;99.90
61004;DHT22;46889;37.310;13.582;2023-04-25T11:12:56;24.70;99.90
61004;DHT22;46889;37.310;13.582;2023-04-25T11:15:23;24.70;99.90
61004;DHT22;46889;37.310;13.582;2023-04-25T11:17:51;25.30;99.90
61004;DHT22;46889;37.310;13.582;2023-04-25T11:20:18;25.10;99.90
61004;DHT22;46889;37.310;13.582;2023-04-25T11:22:45;25.00;99.90
61004;DHT22;46889;37.310;13.582;2023-04-25T11:25:12;25.30;99.90
61004;DHT22;46889;37.310;13.582;2023-04-25T11:27:52;25.40;99.90
61004;DHT22;46889;37.310;13.582;2023-04-25T11:30:20;25.30;99.90
61004;DHT22;46889;37.310;13.582;2023-04-25T11:32:46;25.30;99.90
61004;DHT22;46889;37.310;13.582;2023-04-25T11:35:13;25.20;99.90
61004;DHT22;46889;37.310;13.582;2023-04-25T11:37:43;25.40;99.90
61004;DHT22;46889;37.310;13.582;2023-04-25T11:40:10;25.60;99.90
61004;DHT22;46889;37.310;13.582;2023-04-25T11:42:38;25.70;99.90
61004;DHT22;46889;37.310;13.582;2023-04-25T11:45:05;26.00;99.90
61004;DHT22;46889;37.310;13.582;2023-04-25T11:47:32;25.70;99.90
61004;DHT22;46889;37.310;13.582;2023-04-25T11:49:59;25.70;99.90
61004;DHT22;46889;37.310;13.582;2023-04-25T11:52:45;25.10;99.90
61004;DHT22;46889;37.310;13.582;2023-04-25T11:55:16;25.00;99.90
61004;DHT22;46889;37.310;13.582;2023-04-25T11:57:45;24.80;99.90
61004;DHT22;46889;37.310;13.582;2023-04-25T12:00:15;24.90;99.90
61004;DHT22;46889;37.310;13.582;2023-04-25T12:02:47;25.10;99.90
61004;DHT22;46889;37.310;13.582;2023-04-25T12:05:14;25.00;99.90
61004;DHT22;46889;37.310;13.582;2023-04-25T12:07:44;25.00;99.90
61004;DHT22;46889;37.310;13.582;2023-04-25T12:10:16;25.00;99.90
61004;DHT22;46889;37.310;13.582;2023-04-25T12:12:44;25.20;99.90
61004;DHT22;46889;37.310;13.582;2023-04-25T12:15:16;25.10;99.90
61004;DHT22;46889;37.310;13.582;2023-04-25T12:17:49;25.50;99.90
61004;DHT22;46889;37.310;13.582;2023-04-25T12:20:18;25.40;99.90
61004;DHT22;46889;37.310;13.582;2023-04-25T12:22:47;25.20;99.90
61004;DHT22;46889;37.310;13.582;2023-04-25T12:28:20;24.90;99.90
61004;DHT22;46889;37.310;13.582;2023-04-25T12:31:00;24.80;99.90
61004;DHT22;46889;37.310;13.582;2023-04-25T12:33:37;25.10;99.90
61004;DHT22;46889;37.310;13.582;2023-04-25T12:36:06;25.00;99.90
61004;DHT22;46889;37.310;13.582;2023-04-25T12:38:40;24.50;99.90
61004;DHT22;46889;37.310;13.582;2023-04-25T12:41:06;24.40;99.90
61004;DHT22;46889;37.310;13.582;2023-04-25T12:43:32;24.60;99.90
61004;DHT22;46889;37.310;13.582;2023-04-25T12:45:58;24.70;99.90
61004;DHT22;46889;37.310;13.582;2023-04-25T12:48:24;25.10;99.90
61004;DHT22;46889;37.310;13.582;2023-04-25T12:50:51;25.20;99.90
61004;DHT22;46889;37.310;13.582;2023-04-25T12:53:21;25.20;99.90
61004;DHT22;46889;37.310;13.582;2023-04-25T12:55:48;25.00;99.90
61004;DHT22;46889;37.310;13.582;2023-04-25T12:58:15;24.80;99.90
61004;DHT22;46889;37.310;13.582;2023-04-25T13:00:41;24.90;99.90
61004;DHT22;46889;37.310;13.582;2023-04-25T13:03:08;25.10;99.90
61004;DHT22;46889;37.310;13.582;2023-04-25T13:05:34;24.90;99.90
61004;DHT22;46889;37.310;13.582;2023-04-25T13:08:01;24.30;99.90
61004;DHT22;46889;37.310;13.582;2023-04-25T13:10:27;24.70;99.90
61004;DHT22;46889;37.310;13.582;2023-04-25T13:12:53;24.70;99.90
61004;DHT22;46889;37.310;13.582;2023-04-25T13:15:19;24.60;99.90
61004;DHT22;46889;37.310;13.582;2023-04-25T13:17:46;24.20;99.90
61004;DHT22;46889;37.310;13.582;2023-04-25T13:20:12;23.80;99.90
61004;DHT22;46889;37.310;13.582;2023-04-25T13:22:39;24.10;99.90
61004;DHT22;46889;37.310;13.582;2023-04-25T13:25:07;24.10;99.90
61004;DHT22;46889;37.310;13.582;2023-04-25T13:27:34;24.10;99.90
61004;DHT22;46889;37.310;13.582;2023-04-25T13:30:03;24.30;99.90
61004;DHT22;46889;37.310;13.582;2023-04-25T13:32:34;24.10;99.90
61004;DHT22;46889;37.310;13.582;2023-04-25T13:35:07;24.20;99.90
61004;DHT22;46889;37.310;13.582;2023-04-25T13:37:33;24.50;99.90
61004;DHT22;46889;37.310;13.582;2023-04-25T13:40:00;24.70;99.90
61004;DHT22;46889;37.310;13.582;2023-04-25T13:42:27;24.10;99.90
61004;DHT22;46889;37.310;13.582;2023-04-25T13:44:54;24.10;99.90
61004;DHT22;46889;37.310;13.582;2023-04-25T13:47:20;23.90;99.90
61004;DHT22;46889;37.310;13.582;2023-04-25T13:49:46;23.80;99.90
61004;DHT22;46889;37.310;13.582;2023-04-25T13:52:12;23.70;99.90
61004;DHT22;46889;37.310;13.582;2023-04-25T13:54:38;23.30;99.90
61004;DHT22;46889;37.310;13.582;2023-04-25T13:57:04;23.40;99.90
61004;DHT22;46889;37.310;13.582;2023-04-25T13:59:31;23.50;99.90
61004;DHT22;46889;37.310;13.582;2023-04-25T14:01:57;23.30;99.90
61004;DHT22;46889;37.310;13.582;2023-04-25T14:04:23;23.30;99.90
61004;DHT22;46889;37.310;13.582;2023-04-25T14:06:50;23.00;99.90
61004;DHT22;46889;37.310;13.582;2023-04-25T14:09:18;23.30;99.90
61004;DHT22;46889;37.310;13.582;2023-04-25T14:11:46;23.30;99.90
61004;DHT22;46889;37.310;13.582;2023-04-25T14:14:13;23.20;99.90
61004;DHT22;46889;37.310;13.582;2023-04-25T14:16:41;23.30;99.90
61004;DHT22;46889;37.310;13.582;2023-04-25T14:19:07;23.60;99.90
61004;DHT22;46889;37.310;13.582;2023-04-25T14:21:33;23.30;99.90
61004;DHT22;46889;37.310;13.582;2023-04-25T14:23:59;22.60;99.90
61004;DHT22;46889;37.310;13.582;2023-04-25T14:26:25;22.50;99.90
61004;DHT22;46889;37.310;13.582;2023-04-25T14:28:52;23.10;99.90
61004;DHT22;46889;37.310;13.582;2023-04-25T14:31:18;23.00;99.90
61004;DHT22;46889;37.310;13.582;2023-04-25T14:33:44;22.80;99.90
61004;DHT22;46889;37.310;13.582;2023-04-25T14:36:11;23.20;99.90
61004;DHT22;46889;37.310;13.582;2023-04-25T14:38:37;23.30;99.90
61004;DHT22;46889;37.310;13.582;2023-04-25T14:41:03;23.30;99.90
61004;DHT22;46889;37.310;13.582;2023-04-25T14:43:29;23.40;99.90
61004;DHT22;46889;37.310;13.582;2023-04-25T14:45:55;22.80;99.90
61004;DHT22;46889;37.310;13.582;2023-04-25T14:48:21;22.60;99.90
61004;DHT22;46889;37.310;13.582;2023-04-25T14:50:47;23.00;99.90
61004;DHT22;46889;37.310;13.582;2023-04-25T14:53:13;22.70;99.90
61004;DHT22;46889;37.310;13.582;2023-04-25T14:55:40;22.70;99.90
61004;DHT22;46889;37.310;13.582;2023-04-25T14:58:06;22.80;99.90
61004;DHT22;46889;37.310;13.582;2023-04-25T15:00:32;23.20;99.90
61004;DHT22;46889;37.310;13.582;2023-04-25T15:02:59;23.30;99.90
61004;DHT22;46889;37.310;13.582;2023-04-25T15:05:25;23.30;99.90
61004;DHT22;46889;37.310;13.582;2023-04-25T15:07:51;23.30;99.90
61004;DHT22;46889;37.310;13.582;2023-04-25T15:10:18;23.10;99.90
61004;DHT22;46889;37.310;13.582;2023-04-25T15:12:44;23.10;99.90
61004;DHT22;46889;37.310;13.582;2023-04-25T15:15:11;23.30;99.90
61004;DHT22;46889;37.310;13.582;2023-04-25T15:17:38;23.10;99.90
61004;DHT22;46889;37.310;13.582;2023-04-25T15:20:10;22.90;99.90
61004;DHT22;46889;37.310;13.582;2023-04-25T15:22:39;22.60;99.90